Time;durP1;ratioP1;P1;durP2;ratioP2;P2;SDS_P1;SDS_P2;PMS_P1;PMS_P2;Temp;Humidity;BMP_temperature;BMP_pressure;BME280_temperature;BME280_humidity;BME280_pressure;Samples;Min_cycle;Max_cycle;Signal;HPM_P1;HPM_P2
2023/07/24 00:00:58;;;;;;;1.27;0.70;;;;;;;19.97;100.00;99622.44;5169149;28;20061;-71
2023/07/24 00:03:29;;;;;;;1.90;0.70;;;;;;;19.91;100.00;99628.28;5171425;28;20396;-72
2023/07/24 00:05:59;;;;;;;3.53;0.80;;;;;;;19.94;100.00;99625.38;5156348;28;20282;-71
2023/07/24 00:08:29;;;;;;;1.73;0.80;;;;;;;19.91;100.00;99627.44;5172780;28;20297;-71
2023/07/24 00:11:00;;;;;;;1.77;0.90;;;;;;;20.01;100.00;99625.66;5167476;28;20061;-71
2023/07/24 00:13:30;;;;;;;1.02;0.73;;;;;;;19.97;100.00;99633.03;5169379;28;20030;-71
2023/07/24 00:16:05;;;;;;;1.50;1.00;;;;;;;19.88;100.00;99628.56;5166841;28;20288;-72
2023/07/24 00:18:36;;;;;;;1.23;0.70;;;;;;;19.87;100.00;99624.25;5160635;28;20049;-71
2023/07/24 00:21:06;;;;;;;3.53;0.70;;;;;;;19.92;100.00;99627.31;5168420;28;20049;-72
2023/07/24 00:23:36;;;;;;;2.08;0.80;;;;;;;19.90;100.00;99625.75;5165730;28;20033;-70
2023/07/24 00:26:07;;;;;;;1.83;0.80;;;;;;;19.89;100.00;99616.13;5165290;28;20038;-72
2023/07/24 00:28:37;;;;;;;1.73;0.90;;;;;;;19.86;100.00;99614.63;5166719;28;20304;-72
2023/07/24 00:31:07;;;;;;;1.30;0.70;;;;;;;19.89;100.00;99621.44;5159554;28;20088;-72
2023/07/24 00:33:38;;;;;;;2.20;1.17;;;;;;;19.91;100.00;99611.53;5169527;28;20306;-71
2023/07/24 00:36:08;;;;;;;0.73;0.60;;;;;;;20.02;100.00;99622.91;5170145;28;20499;-72
2023/07/24 00:38:39;;;;;;;1.27;0.70;;;;;;;19.93;100.00;99623.69;5171609;28;20545;-72
2023/07/24 00:41:09;;;;;;;1.52;0.70;;;;;;;20.00;100.00;99614.22;5164576;28;20029;-71
2023/07/24 00:43:41;;;;;;;1.77;0.80;;;;;;;20.01;100.00;99607.94;5167819;28;20437;-71
2023/07/24 00:46:11;;;;;;;1.00;0.70;;;;;;;19.97;100.00;99613.66;5167386;28;20277;-72
2023/07/24 00:48:41;;;;;;;1.05;0.75;;;;;;;19.91;100.00;99609.72;5181436;28;20028;-72
2023/07/24 00:51:12;;;;;;;1.65;0.60;;;;;;;19.91;100.00;99604.41;5173682;28;20071;-70
2023/07/24 00:53:43;;;;;;;2.03;0.68;;;;;;;19.89;100.00;99608.19;5161025;28;20119;-71
2023/07/24 00:56:13;;;;;;;1.42;0.90;;;;;;;19.89;100.00;99613.47;5158748;28;20021;-71
2023/07/24 00:58:43;;;;;;;1.27;0.70;;;;;;;19.90;100.00;99615.16;5154059;28;20084;-71
2023/07/24 01:01:16;;;;;;;1.92;0.70;;;;;;;19.90;100.00;99597.44;5162041;28;20026;-71
2023/07/24 01:03:47;;;;;;;1.50;0.60;;;;;;;19.86;100.00;99603.16;5209516;22;20095;-75
2023/07/24 01:06:17;;;;;;;1.05;0.70;;;;;;;19.94;100.00;99601.50;5166929;28;20035;-75
2023/07/24 01:08:47;;;;;;;1.40;0.60;;;;;;;19.88;100.00;99602.06;5162959;28;20594;-73
2023/07/24 01:11:20;;;;;;;1.33;0.80;;;;;;;19.95;100.00;99613.78;5167318;28;20075;-75
2023/07/24 01:14:10;;;;;;;1.05;0.88;;;;;;;19.93;100.00;99596.34;5161457;28;20483;-75
2023/07/24 01:16:43;;;;;;;1.27;0.70;;;;;;;19.86;100.00;99600.50;5138909;28;20035;-75
2023/07/24 01:19:42;;;;;;;0.88;0.65;;;;;;;19.88;100.00;99595.88;5158331;28;20030;-75
2023/07/24 01:22:24;;;;;;;1.50;0.70;;;;;;;19.93;100.00;99601.66;5155940;28;20627;-75
2023/07/24 01:25:06;;;;;;;1.60;0.80;;;;;;;19.92;100.00;99603.44;5144964;28;20036;-75
2023/07/24 01:27:41;;;;;;;1.58;0.75;;;;;;;19.93;100.00;99605.13;5155359;28;20037;-75
2023/07/24 01:30:12;;;;;;;;;;;;;;;20.00;100.00;99597.47;5150098;28;20099;-75
2023/07/24 01:32:43;;;;;;;1.10;0.70;;;;;;;20.01;100.00;99580.56;5161473;28;20336;-75
2023/07/24 01:35:13;;;;;;;1.42;0.80;;;;;;;19.88;100.00;99579.97;5156004;28;20116;-75
2023/07/24 01:37:46;;;;;;;3.05;0.98;;;;;;;19.84;100.00;99594.50;5157763;28;20404;-75
2023/07/24 01:40:17;;;;;;;0.70;0.60;;;;;;;19.74;100.00;99597.13;5143286;28;20026;-73
2023/07/24 01:42:49;;;;;;;1.60;0.70;;;;;;;19.68;100.00;99592.38;5156818;28;20038;-73
2023/07/24 01:45:20;;;;;;;1.30;0.70;;;;;;;19.61;100.00;99598.34;5156059;28;20049;-75
2023/07/24 01:47:50;;;;;;;1.08;0.80;;;;;;;19.67;100.00;99593.34;5167349;28;20042;-75
2023/07/24 01:50:20;;;;;;;2.22;0.80;;;;;;;19.63;100.00;99601.69;5162919;28;20409;-74
2023/07/24 01:52:50;;;;;;;1.88;0.90;;;;;;;19.71;100.00;99597.41;5162326;28;20038;-74
2023/07/24 01:55:21;;;;;;;1.13;0.80;;;;;;;19.69;100.00;99591.41;5163864;28;20113;-75
2023/07/24 01:57:51;;;;;;;1.05;0.70;;;;;;;19.69;100.00;99591.41;5160023;28;20026;-75
2023/07/24 02:00:21;;;;;;;1.50;0.77;;;;;;;19.75;100.00;99595.31;5159005;28;20026;-74
2023/07/24 02:02:52;;;;;;;1.07;0.70;;;;;;;19.66;100.00;99591.69;5155726;28;20109;-74
2023/07/24 02:05:22;;;;;;;1.45;0.90;;;;;;;19.74;100.00;99591.81;5160118;28;20284;-75
2023/07/24 02:07:52;;;;;;;1.55;0.80;;;;;;;19.70;100.00;99593.06;5160353;28;20041;-75
2023/07/24 02:10:23;;;;;;;1.38;0.70;;;;;;;19.71;100.00;99588.59;5161402;28;20030;-74
2023/07/24 02:12:53;;;;;;;2.47;1.00;;;;;;;19.73;100.00;99598.09;5140059;28;20030;-75
2023/07/24 02:15:23;;;;;;;1.48;0.77;;;;;;;19.87;100.00;99594.22;5146494;28;20025;-75
2023/07/24 02:17:54;;;;;;;3.07;0.80;;;;;;;19.81;100.00;99592.94;5162271;28;20036;-75
2023/07/24 02:20:24;;;;;;;0.85;0.60;;;;;;;19.77;100.00;99591.53;5162471;28;20372;-75
2023/07/24 02:22:54;;;;;;;1.00;0.70;;;;;;;19.75;100.00;99585.53;5160007;28;20030;-75
2023/07/24 02:25:24;;;;;;;1.40;0.90;;;;;;;19.71;100.00;99586.78;5162599;28;20324;-74
2023/07/24 02:27:55;;;;;;;2.05;0.73;;;;;;;19.78;100.00;99589.75;5144082;28;20034;-75
2023/07/24 02:30:25;;;;;;;1.53;0.80;;;;;;;19.80;100.00;99585.97;5161975;28;20099;-75
2023/07/24 02:32:56;;;;;;;3.00;0.95;;;;;;;19.76;100.00;99584.56;5161529;28;20441;-75
2023/07/24 02:35:27;;;;;;;2.30;1.05;;;;;;;19.80;100.00;99577.19;5158687;28;20177;-75
2023/07/24 02:37:57;;;;;;;1.93;1.00;;;;;;;19.67;100.00;99577.44;5162731;28;20397;-75
2023/07/24 02:40:27;;;;;;;2.63;0.90;;;;;;;19.66;100.00;99580.22;5146828;28;20266;-75
2023/07/24 02:42:57;;;;;;;1.17;0.87;;;;;;;19.55;100.00;99569.72;5149987;28;20288;-75
2023/07/24 02:45:28;;;;;;;1.23;0.70;;;;;;;19.60;100.00;99575.47;5163744;28;20290;-75
2023/07/24 02:47:58;;;;;;;1.57;0.80;;;;;;;19.59;100.00;99574.63;5162290;28;20346;-75
2023/07/24 02:50:29;;;;;;;1.40;0.83;;;;;;;19.62;100.00;99578.81;5162568;28;20281;-75
2023/07/24 02:52:59;;;;;;;1.48;0.90;;;;;;;19.54;100.00;99574.19;5161289;28;20615;-75
2023/07/24 02:55:30;;;;;;;1.05;0.70;;;;;;;19.57;100.00;99578.34;5162745;28;20031;-75
2023/07/24 02:58:00;;;;;;;1.45;0.77;;;;;;;19.52;100.00;99573.50;5166454;28;20064;-75
2023/07/24 03:00:31;;;;;;;1.27;0.73;;;;;;;19.47;100.00;99570.38;5162050;28;20034;-75
2023/07/24 03:03:01;;;;;;;1.60;0.68;;;;;;;19.49;100.00;99573.75;5163901;28;20482;-75
2023/07/24 03:05:34;;;;;;;1.33;0.70;;;;;;;19.54;100.00;99575.97;5160063;28;20028;-75
2023/07/24 03:08:04;;;;;;;1.40;0.70;;;;;;;19.59;100.00;99585.22;5165566;28;20091;-76
2023/07/24 03:10:35;;;;;;;1.50;0.77;;;;;;;19.60;100.00;99578.94;5163501;28;20511;-75
2023/07/24 03:13:05;;;;;;;0.85;0.60;;;;;;;19.54;100.00;99573.34;5161827;28;20049;-75
2023/07/24 03:15:35;;;;;;;1.83;0.95;;;;;;;19.57;100.00;99579.22;5139812;28;20022;-74
2023/07/24 03:18:06;;;;;;;1.05;0.70;;;;;;;19.57;100.00;99576.56;5165812;28;20030;-75
2023/07/24 03:20:36;;;;;;;1.25;0.80;;;;;;;19.63;100.00;99576.00;5163430;28;20026;-75
2023/07/24 03:23:06;;;;;;;2.28;0.73;;;;;;;19.59;100.00;99576.44;5147464;28;20108;-73
2023/07/24 03:25:37;;;;;;;2.92;0.88;;;;;;;19.61;100.00;99577.13;5148287;28;20184;-75
2023/07/24 03:28:07;;;;;;;1.20;0.82;;;;;;;19.48;100.00;99573.88;5167622;28;20045;-73
2023/07/24 03:30:37;;;;;;;2.10;0.93;;;;;;;19.59;100.00;99574.63;5165729;28;20127;-75
2023/07/24 03:33:08;;;;;;;1.52;0.80;;;;;;;19.56;100.00;99564.28;5166844;28;20029;-75
2023/07/24 03:35:39;;;;;;;1.55;0.90;;;;;;;19.48;100.00;99573.88;5170131;28;20272;-75
2023/07/24 03:38:09;;;;;;;1.25;0.90;;;;;;;19.49;100.00;99568.47;5169831;28;20152;-75
2023/07/24 03:40:39;;;;;;;2.67;0.85;;;;;;;19.49;100.00;99567.59;5152550;28;20483;-75
2023/07/24 03:43:10;;;;;;;4.38;0.90;;;;;;;19.47;100.00;99567.72;5167604;28;20033;-75
2023/07/24 03:45:40;;;;;;;1.25;0.75;;;;;;;19.51;100.00;99573.59;5167925;28;20108;-76
2023/07/24 03:48:10;;;;;;;1.27;0.90;;;;;;;19.58;100.00;99570.28;5167620;28;20038;-75
2023/07/24 03:50:40;;;;;;;2.60;1.08;;;;;;;19.50;100.00;99575.44;5149076;28;20038;-75
2023/07/24 03:53:11;;;;;;;1.20;0.90;;;;;;;19.48;100.00;99572.06;5165960;28;20471;-75
2023/07/24 03:55:41;;;;;;;1.40;0.80;;;;;;;19.41;100.00;99565.63;5169930;28;20476;-75
2023/07/24 03:58:11;;;;;;;2.17;0.90;;;;;;;19.53;100.00;99558.41;5165977;28;20289;-75
2023/07/24 04:00:42;;;;;;;1.42;0.80;;;;;;;19.41;100.00;99559.50;5169982;28;20510;-75
2023/07/24 04:03:12;;;;;;;2.17;1.00;;;;;;;19.26;100.00;99561.66;5167977;28;20495;-75
2023/07/24 04:05:42;;;;;;;1.88;1.08;;;;;;;19.25;100.00;99557.34;5169789;28;20036;-75
2023/07/24 04:08:13;;;;;;;1.80;0.93;;;;;;;19.23;100.00;99555.78;5169145;28;20125;-75
2023/07/24 04:10:43;;;;;;;1.90;1.20;;;;;;;19.30;100.00;99557.75;5150304;28;20038;-75
2023/07/24 04:13:13;;;;;;;1.87;0.90;;;;;;;19.33;100.00;99556.66;5169158;28;20329;-75
2023/07/24 04:15:46;;;;;;;1.25;0.90;;;;;;;19.29;100.00;99550.78;5172299;28;20630;-75
2023/07/24 04:18:17;;;;;;;2.03;0.88;;;;;;;19.26;100.00;99543.13;5171461;28;20022;-75
2023/07/24 04:20:47;;;;;;;2.20;0.90;;;;;;;19.35;100.00;99544.97;5174267;28;20049;-76
2023/07/24 04:23:17;;;;;;;1.73;0.90;;;;;;;19.38;100.00;99544.69;5133878;28;20681;-76
2023/07/24 04:25:50;;;;;;;1.63;1.03;;;;;;;19.41;100.00;99539.13;5156845;28;20511;-73
2023/07/24 04:28:21;;;;;;;1.85;1.05;;;;;;;19.51;100.00;99534.69;5159013;28;20273;-75
2023/07/24 04:30:51;;;;;;;2.03;1.00;;;;;;;19.58;100.00;99541.13;5163144;28;20090;-75
2023/07/24 04:33:21;;;;;;;1.67;1.00;;;;;;;19.61;100.00;99532.06;5163970;28;20276;-73
2023/07/24 04:35:51;;;;;;;1.13;0.82;;;;;;;19.56;100.00;99537.78;5165284;28;22385;-75
2023/07/24 04:38:22;;;;;;;2.13;1.37;;;;;;;19.77;100.00;99535.03;5167849;28;20076;-74
2023/07/24 04:40:52;;;;;;;2.13;0.98;;;;;;;19.67;100.00;99524.41;5147524;28;20318;-75
2023/07/24 04:43:22;;;;;;;1.80;1.05;;;;;;;19.70;100.00;99516.19;5167178;28;20120;-75
2023/07/24 04:45:53;;;;;;;1.13;0.90;;;;;;;19.77;100.00;99519.94;5163994;28;20545;-75
2023/07/24 04:48:23;;;;;;;1.50;0.90;;;;;;;19.80;100.00;99516.19;5174222;28;20438;-74
2023/07/24 04:50:55;;;;;;;2.47;1.03;;;;;;;19.78;100.00;99513.66;5164645;28;20286;-75
2023/07/24 04:53:25;;;;;;;3.15;1.20;;;;;;;19.85;100.00;99511.31;5167828;28;20607;-75
2023/07/24 04:55:55;;;;;;;1.20;0.90;;;;;;;20.13;100.00;99500.72;5170092;28;20041;-75
2023/07/24 04:58:25;;;;;;;1.60;0.90;;;;;;;21.49;100.00;99500.88;5163897;28;20687;-76
2023/07/24 05:00:56;;;;;;;1.73;0.90;;;;;;;22.68;99.90;99501.19;5165405;28;20373;-76
2023/07/24 05:03:26;;;;;;;2.17;0.90;;;;;;;22.52;92.84;99516.22;5169453;28;21087;-75
2023/07/24 05:05:56;;;;;;;4.43;1.00;;;;;;;21.81;97.14;99511.06;5166823;28;20294;-76
2023/07/24 05:08:27;;;;;;;1.23;0.90;;;;;;;21.38;99.83;99497.59;5171907;28;20294;-76
2023/07/24 05:10:58;;;;;;;2.33;0.60;;;;;;;21.74;99.30;99483.41;5169477;28;20492;-76
2023/07/24 05:13:28;;;;;;;1.42;0.82;;;;;;;22.64;92.87;99469.72;5169573;28;20284;-76
2023/07/24 05:15:59;;;;;;;2.43;0.93;;;;;;;24.41;82.64;99462.03;5167130;28;20022;-76
2023/07/24 05:18:29;;;;;;;1.80;1.03;;;;;;;26.20;78.04;99450.25;5167831;28;20289;-74
2023/07/24 05:20:59;;;;;;;1.70;1.10;;;;;;;27.01;73.78;99449.25;5162198;28;20019;-74
2023/07/24 05:23:30;;;;;;;1.80;0.80;;;;;;;28.25;69.75;99444.31;5171607;28;20030;-74
2023/07/24 05:26:02;;;;;;;1.80;0.60;;;;;;;28.46;70.00;99440.81;5157705;28;20246;-74
2023/07/24 05:28:33;;;;;;;0.93;0.70;;;;;;;28.43;70.17;99441.16;5170848;28;20079;-73
2023/07/24 05:31:04;;;;;;;1.65;0.85;;;;;;;29.94;66.40;99429.94;5168739;28;20026;-74
2023/07/24 05:33:34;;;;;;;1.42;0.73;;;;;;;30.15;64.68;99440.56;5172081;28;20478;-74
2023/07/24 05:36:05;;;;;;;0.95;0.80;;;;;;;30.43;63.39;99441.19;5170169;28;20109;-74
2023/07/24 05:38:35;;;;;;;0.80;0.60;;;;;;;29.90;64.12;99446.72;5165140;28;20030;-74
2023/07/24 05:41:05;;;;;;;1.10;0.73;;;;;;;27.64;69.93;99447.59;5165387;28;20023;-74
2023/07/24 05:43:36;;;;;;;1.10;0.80;;;;;;;26.18;74.05;99445.06;5146438;28;20263;-74
2023/07/24 05:46:06;;;;;;;1.75;0.93;;;;;;;25.33;77.60;99444.44;5153953;28;20328;-73
2023/07/24 05:48:36;;;;;;;1.50;0.90;;;;;;;24.20;82.53;99447.56;5149681;28;20116;-72
2023/07/24 05:51:06;;;;;;;4.97;1.00;;;;;;;24.59;80.28;99435.97;5170827;28;20289;-73
2023/07/24 05:53:37;;;;;;;3.00;1.05;;;;;;;24.82;79.93;99442.28;5168863;28;20843;-73
2023/07/24 05:56:07;;;;;;;1.47;0.90;;;;;;;24.78;80.30;99446.31;5167898;28;20030;-73
2023/07/24 05:58:37;;;;;;;1.37;0.90;;;;;;;24.79;80.24;99440.78;5151320;28;20372;-75
2023/07/24 06:01:09;;;;;;;3.47;1.00;;;;;;;26.03;76.52;99435.31;5169506;28;20292;-72
2023/07/24 06:03:40;;;;;;;1.55;0.90;;;;;;;26.81;72.22;99448.16;5152065;28;20431;-73
2023/07/24 06:06:10;;;;;;;1.63;1.00;;;;;;;25.36;78.35;99457.47;5171146;28;20014;-73
2023/07/24 06:08:40;;;;;;;1.83;1.03;;;;;;;24.52;81.20;99458.25;5166664;28;20053;-75
2023/07/24 06:11:11;;;;;;;2.13;1.00;;;;;;;23.87;84.19;99448.53;5166888;28;20364;-74
2023/07/24 06:13:41;;;;;;;1.63;1.00;;;;;;;23.36;85.69;99454.09;5160595;28;20278;-75
2023/07/24 06:16:13;;;;;;;1.80;1.20;;;;;;;22.78;91.23;99445.97;5163179;28;20040;-75
2023/07/24 06:18:44;;;;;;;3.05;1.10;;;;;;;22.84;92.29;99442.66;5162475;28;20394;-73
2023/07/24 06:21:14;;;;;;;1.42;1.02;;;;;;;22.64;94.20;99440.41;5166250;28;20229;-74
2023/07/24 06:23:44;;;;;;;2.22;1.20;;;;;;;22.37;96.74;99443.19;5165983;28;20211;-74
2023/07/24 06:26:15;;;;;;;6.90;1.20;;;;;;;22.46;96.14;99441.44;5147903;28;20387;-74
2023/07/24 06:28:45;;;;;;;2.10;0.97;;;;;;;22.16;97.61;99444.50;5169163;28;20071;-73
2023/07/24 06:31:15;;;;;;;1.83;1.10;;;;;;;22.35;96.81;99441.66;5168602;28;20288;-75
2023/07/24 06:33:45;;;;;;;1.73;1.10;;;;;;;22.06;98.05;99436.63;5169887;28;20308;-75
2023/07/24 06:36:16;;;;;;;3.03;1.38;;;;;;;22.04;98.40;99433.28;5169401;28;20277;-74
2023/07/24 06:38:47;;;;;;;2.30;1.30;;;;;;;22.19;98.46;99426.41;5169401;28;20113;-74
2023/07/24 06:41:19;;;;;;;2.38;1.17;;;;;;;22.52;96.96;99420.34;5126580;28;20023;-75
2023/07/24 06:43:50;;;;;;;1.90;1.20;;;;;;;22.80;97.33;99416.47;5162242;28;20061;-75
2023/07/24 06:46:20;;;;;;;2.75;1.30;;;;;;;23.34;92.03;99408.88;5164913;28;20133;-75
2023/07/24 06:48:51;;;;;;;1.30;1.10;;;;;;;23.71;90.85;99397.78;5166126;28;20040;-75
2023/07/24 06:51:21;;;;;;;3.10;1.40;;;;;;;24.00;88.86;99398.97;5168779;28;20032;-75
2023/07/24 06:53:51;;;;;;;2.85;1.33;;;;;;;24.29;86.92;99383.28;5167835;28;20276;-75
2023/07/24 06:56:21;;;;;;;1.60;1.00;;;;;;;25.26;83.62;99390.81;5169960;28;20029;-75
2023/07/24 06:58:52;;;;;;;2.87;1.20;;;;;;;25.12;82.63;99388.03;5169750;28;20287;-74
2023/07/24 07:01:22;;;;;;;2.03;1.15;;;;;;;24.52;82.91;99376.22;5163399;28;20294;-75
2023/07/24 07:03:52;;;;;;;2.97;1.30;;;;;;;24.06;87.57;99382.28;5192654;23;21889;-76
2023/07/24 07:06:23;;;;;;;2.53;1.30;;;;;;;24.40;84.41;99380.22;5175992;28;20618;-76
2023/07/24 07:08:53;;;;;;;1.77;1.13;;;;;;;24.13;84.79;99388.63;5174903;28;20503;-76
2023/07/24 07:11:23;;;;;;;3.50;1.30;;;;;;;24.33;85.56;99400.63;5177439;28;20026;-77
2023/07/24 07:13:53;;;;;;;2.47;1.00;;;;;;;23.81;86.03;99396.63;5172367;28;20884;-76
2023/07/24 07:16:24;;;;;;;2.42;1.30;;;;;;;23.46;86.86;99394.25;5156819;28;20315;-76
2023/07/24 07:18:54;;;;;;;2.83;1.30;;;;;;;23.17;87.50;99396.50;5160594;28;20034;-76
2023/07/24 07:21:24;;;;;;;3.13;1.47;;;;;;;23.04;90.24;99388.09;5168714;28;20022;-76
2023/07/24 07:23:55;;;;;;;2.00;1.30;;;;;;;23.29;90.43;99381.88;5148659;28;20718;-76
2023/07/24 07:26:25;;;;;;;2.55;1.20;;;;;;;23.15;89.96;99379.00;5151017;28;20032;-76
2023/07/24 07:28:55;;;;;;;2.50;1.40;;;;;;;22.95;89.92;99381.09;5147507;28;20044;-76
2023/07/24 07:31:26;;;;;;;3.53;1.40;;;;;;;22.90;93.05;99380.75;5168921;28;20277;-76
2023/07/24 07:33:56;;;;;;;2.35;1.02;;;;;;;23.20;92.23;99376.69;5169779;28;20666;-76
2023/07/24 07:36:26;;;;;;;2.23;1.33;;;;;;;23.28;90.02;99369.56;5156296;28;20415;-76
2023/07/24 07:38:56;;;;;;;1.77;1.38;;;;;;;23.39;89.63;99371.06;5165502;28;20276;-76
2023/07/24 07:41:28;;;;;;;2.55;1.27;;;;;;;23.47;89.34;99366.56;5152113;28;20821;-76
2023/07/24 07:43:58;;;;;;;2.47;1.30;;;;;;;23.73;88.14;99361.91;5147535;28;20040;-76
2023/07/24 07:46:29;;;;;;;2.35;1.50;;;;;;;24.38;86.21;99344.03;5150183;28;20046;-76
2023/07/24 07:48:59;;;;;;;2.63;1.33;;;;;;;24.64;83.43;99342.78;5153044;28;20034;-76
2023/07/24 07:51:29;;;;;;;3.45;1.52;;;;;;;24.60;82.51;99344.16;5149062;28;20044;-76
2023/07/24 07:53:59;;;;;;;4.57;1.50;;;;;;;24.74;83.56;99327.34;5154431;28;20038;-76
2023/07/24 07:56:30;;;;;;;2.20;1.37;;;;;;;24.61;80.39;99319.09;5155612;28;20306;-76
2023/07/24 07:59:00;;;;;;;3.00;1.47;;;;;;;24.44;83.63;99327.28;5163175;28;20277;-76
2023/07/24 08:01:31;;;;;;;2.60;1.60;;;;;;;24.67;83.62;99338.91;5149886;28;20642;-77
2023/07/24 08:04:01;;;;;;;1.95;1.27;;;;;;;24.34;83.11;99331.97;5165167;28;20294;-76
2023/07/24 08:06:31;;;;;;;2.77;1.50;;;;;;;24.43;82.48;99321.13;5156263;28;20458;-76
2023/07/24 08:09:02;;;;;;;2.97;1.50;;;;;;;25.75;78.54;99329.72;5156344;28;20289;-76
2023/07/24 08:11:32;;;;;;;3.17;1.63;;;;;;;26.74;74.69;99327.38;5158034;28;20286;-76
2023/07/24 08:14:02;;;;;;;2.73;1.50;;;;;;;28.39;68.93;99324.28;5152993;28;20509;-77
2023/07/24 08:16:33;;;;;;;2.92;1.42;;;;;;;29.43;65.74;99304.03;5158642;28;20281;-76
2023/07/24 08:19:03;;;;;;;5.23;1.57;;;;;;;29.88;63.63;99311.34;5155330;28;20034;-77
2023/07/24 08:21:33;;;;;;;3.63;1.60;;;;;;;30.46;61.37;99297.78;5157445;28;20313;-77
2023/07/24 08:24:04;;;;;;;5.03;1.90;;;;;;;31.25;60.07;99296.47;5151235;28;20033;-78
2023/07/24 08:26:34;;;;;;;2.00;1.38;;;;;;;32.97;57.81;99309.66;5153625;28;20270;-76
2023/07/24 08:29:05;;;;;;;3.43;1.90;;;;;;;33.35;57.38;99314.81;5151919;28;20052;-77
2023/07/24 08:31:36;;;;;;;2.70;1.70;;;;;;;32.87;55.56;99296.91;5150846;28;20032;-78
2023/07/24 08:34:06;;;;;;;2.97;1.73;;;;;;;31.35;58.21;99297.66;5162952;28;20018;-77
2023/07/24 08:36:37;;;;;;;3.65;1.50;;;;;;;30.31;60.64;99291.84;5154799;28;20026;-75
2023/07/24 08:39:07;;;;;;;3.83;2.00;;;;;;;28.29;63.98;99304.97;5151065;28;20077;-77
2023/07/24 08:41:38;;;;;;;4.40;1.73;;;;;;;27.69;66.16;99293.94;5153266;28;20455;-77
2023/07/24 08:44:09;;;;;;;4.25;2.10;;;;;;;27.13;67.08;99286.81;5153340;28;20107;-77
2023/07/24 08:46:41;;;;;;;3.05;1.92;;;;;;;26.52;68.54;99286.47;5152328;28;20472;-76
2023/07/24 08:49:13;;;;;;;4.65;2.30;;;;;;;26.23;70.53;99289.13;5153716;28;20037;-74
2023/07/24 08:51:44;;;;;;;3.78;1.92;;;;;;;26.35;69.00;99282.28;5162572;28;20091;-76
2023/07/24 08:54:15;;;;;;;5.80;2.47;;;;;;;26.37;69.77;99286.41;5151232;28;20361;-76
2023/07/24 08:56:49;;;;;;;4.15;2.20;;;;;;;26.08;71.32;99290.94;5153939;28;20041;-76
2023/07/24 08:59:19;;;;;;;3.53;1.85;;;;;;;25.61;71.49;99290.38;5154268;28;20083;-76
2023/07/24 09:01:50;;;;;;;3.58;1.75;;;;;;;25.43;71.39;99313.94;5153487;28;20476;-76
2023/07/24 09:04:21;;;;;;;5.57;2.10;;;;;;;25.17;73.58;99338.31;5146976;28;20404;-76
2023/07/24 09:06:51;;;;;;;6.40;2.38;;;;;;;23.88;89.90;99362.94;5157037;28;20063;-76
2023/07/24 09:09:21;;;;;;;3.88;1.98;;;;;;;23.18;92.98;99363.50;5168066;28;20022;-76
2023/07/24 09:11:53;;;;;;;3.27;1.97;;;;;;;22.96;99.90;99357.91;5170879;28;20406;-76
2023/07/24 09:14:25;;;;;;;4.35;2.08;;;;;;;22.69;100.00;99353.66;5174850;28;20278;-76
2023/07/24 09:17:07;;;;;;;3.70;2.13;;;;;;;22.87;100.00;99358.91;5180354;28;20098;-76
2023/07/24 09:19:38;;;;;;;4.60;2.05;;;;;;;22.60;100.00;99361.78;5170064;28;20056;-76
2023/07/24 09:22:14;;;;;;;4.60;2.15;;;;;;;22.92;100.00;99359.25;5175284;28;20042;-77
2023/07/24 09:24:56;;;;;;;3.78;2.03;;;;;;;23.18;100.00;99362.69;5175523;28;20061;-73
2023/07/24 09:27:28;;;;;;;4.25;1.95;;;;;;;23.23;100.00;99360.38;5165754;28;20125;-75
2023/07/24 09:29:58;;;;;;;3.20;1.98;;;;;;;23.21;100.00;99367.69;5172917;28;20485;-76
2023/07/24 09:32:30;;;;;;;4.90;2.15;;;;;;;23.23;100.00;99358.50;5164390;28;20065;-74
2023/07/24 09:35:01;;;;;;;4.60;1.90;;;;;;;23.64;98.52;99367.41;5174351;28;20151;-76
2023/07/24 09:37:33;;;;;;;3.95;1.67;;;;;;;24.43;93.76;99353.19;5164032;28;20137;-75
2023/07/24 09:40:04;;;;;;;4.95;1.70;;;;;;;25.42;87.02;99352.41;5164388;28;20034;-77
2023/07/24 09:42:36;;;;;;;2.50;1.60;;;;;;;26.56;83.31;99352.09;5168539;28;20034;-75
2023/07/24 09:45:10;;;;;;;2.90;1.55;;;;;;;26.87;79.76;99359.75;5167553;28;20029;-77
2023/07/24 09:47:41;;;;;;;1.83;1.42;;;;;;;27.30;77.71;99356.13;5165919;28;20038;-75
2023/07/24 09:50:11;;;;;;;4.55;1.27;;;;;;;26.94;76.75;99360.63;5177910;28;20072;-74
2023/07/24 09:52:44;;;;;;;1.98;1.35;;;;;;;26.39;77.99;99358.59;5176215;28;20497;-75
2023/07/24 09:55:21;;;;;;;1.83;1.17;;;;;;;26.39;76.00;99358.59;5173052;28;20022;-76
2023/07/24 09:57:53;;;;;;;3.15;1.30;;;;;;;26.43;77.75;99351.84;5174801;28;20416;-76
2023/07/24 10:00:24;;;;;;;3.42;1.13;;;;;;;25.53;78.06;99357.34;5169204;28;20038;-75
2023/07/24 10:02:55;;;;;;;3.53;1.30;;;;;;;26.51;76.67;99346.47;5176367;28;20040;-76
2023/07/24 10:05:26;;;;;;;3.40;1.30;;;;;;;26.68;75.44;99340.69;5171832;28;20082;-74
2023/07/24 10:07:56;;;;;;;1.95;1.20;;;;;;;26.79;74.19;99333.00;5176348;28;20040;-76
2023/07/24 10:10:29;;;;;;;2.40;1.20;;;;;;;26.11;75.85;99344.16;5169930;28;20037;-74
2023/07/24 10:12:59;;;;;;;2.30;1.25;;;;;;;26.11;75.64;99347.69;5169853;28;20043;-76
2023/07/24 10:15:30;;;;;;;2.88;1.38;;;;;;;26.32;76.63;99358.50;5164234;28;20185;-74
2023/07/24 10:18:02;;;;;;;2.50;1.23;;;;;;;26.06;74.97;99350.09;5159403;28;20038;-76
2023/07/24 10:20:38;;;;;;;3.42;1.30;;;;;;;26.33;76.20;99354.00;5165056;28;20108;-73
2023/07/24 10:23:11;;;;;;;2.38;1.08;;;;;;;26.69;74.78;99345.03;5158176;28;20485;-75
2023/07/24 10:25:45;;;;;;;2.63;1.08;;;;;;;26.49;75.27;99337.78;5152468;28;20034;-76
2023/07/24 10:28:17;;;;;;;1.27;0.93;;;;;;;26.71;75.81;99326.91;5149000;28;20030;-76
2023/07/24 10:30:55;;;;;;;2.42;1.10;;;;;;;26.38;76.19;99325.59;5149439;28;20076;-73
2023/07/24 10:33:30;;;;;;;1.60;1.02;;;;;;;26.57;75.69;99313.53;5151092;28;20234;-75
2023/07/24 10:36:22;;;;;;;1.50;0.90;;;;;;;26.50;74.74;99315.31;5150915;28;20065;-75
2023/07/24 10:38:55;;;;;;;2.65;1.25;;;;;;;26.28;74.50;99318.84;5147437;28;20071;-76
2023/07/24 10:41:34;;;;;;;2.10;1.17;;;;;;;26.51;73.42;99319.66;5153259;28;20022;-75
2023/07/24 10:44:05;;;;;;;1.55;0.90;;;;;;;26.50;73.43;99301.91;5149296;28;20049;-76
2023/07/24 10:46:36;;;;;;;1.40;0.90;;;;;;;26.08;76.38;99307.88;5148392;28;20034;-73
2023/07/24 10:49:08;;;;;;;1.75;1.10;;;;;;;26.71;73.46;99301.97;5149612;28;20038;-76
2023/07/24 10:51:38;;;;;;;2.25;1.08;;;;;;;26.55;73.17;99294.13;5150326;28;20113;-76
2023/07/24 10:54:08;;;;;;;1.55;0.80;;;;;;;26.64;70.80;99284.94;5150597;28;20125;-73
2023/07/24 10:56:39;;;;;;;1.63;1.03;;;;;;;26.78;72.12;99274.22;5151460;28;20034;-75
2023/07/24 10:59:09;;;;;;;1.60;0.80;;;;;;;26.46;71.56;99276.44;5153153;28;21275;-73
2023/07/24 11:01:40;;;;;;;1.73;0.90;;;;;;;26.46;73.62;99273.75;5150644;28;20030;-76
2023/07/24 11:04:12;;;;;;;1.73;0.90;;;;;;;26.93;71.16;99281.19;5150535;28;20030;-73
2023/07/24 11:06:42;;;;;;;1.50;0.85;;;;;;;26.84;71.66;99282.34;5149417;28;20023;-76
2023/07/24 11:09:13;;;;;;;1.40;0.90;;;;;;;26.54;70.50;99284.44;5154115;28;20547;-73
2023/07/24 11:11:43;;;;;;;1.40;0.77;;;;;;;26.42;71.55;99278.69;5151742;28;20188;-76
2023/07/24 11:14:14;;;;;;;1.90;1.10;;;;;;;26.59;70.14;99276.66;5152545;28;20273;-75
2023/07/24 11:16:49;;;;;;;1.35;0.90;;;;;;;26.40;71.50;99269.16;5154806;28;21806;-75
2023/07/24 11:19:25;;;;;;;2.73;1.03;;;;;;;26.35;70.72;99268.88;5155450;28;20026;-75
2023/07/24 11:21:58;;;;;;;2.05;1.05;;;;;;;26.25;72.39;99265.63;5150493;28;20241;-76
2023/07/24 11:24:28;;;;;;;1.48;1.00;;;;;;;26.35;72.08;99266.22;5153153;28;20475;-74
2023/07/24 11:26:58;;;;;;;1.67;1.00;;;;;;;26.16;72.70;99280.16;5156870;28;20125;-76
2023/07/24 11:29:30;;;;;;;1.60;1.00;;;;;;;26.26;72.57;99262.78;5152317;28;20289;-73
2023/07/24 11:32:00;;;;;;;3.85;0.80;;;;;;;26.79;71.03;99260.59;5164715;28;20100;-76
2023/07/24 11:34:30;;;;;;;1.37;1.00;;;;;;;26.97;69.24;99252.97;5151303;28;20034;-74
2023/07/24 11:37:01;;;;;;;1.80;1.02;;;;;;;27.30;70.51;99256.84;5163705;28;20560;-76
2023/07/24 11:39:31;;;;;;;2.55;0.80;;;;;;;27.51;71.43;99256.84;5147787;28;20030;-73
2023/07/24 11:42:02;;;;;;;1.65;1.00;;;;;;;27.39;72.02;99247.63;5148204;28;20084;-76
2023/07/24 11:44:32;;;;;;;1.33;0.88;;;;;;;26.99;71.82;99253.63;5150796;28;20220;-73
2023/07/24 11:47:06;;;;;;;1.45;1.00;;;;;;;26.98;69.40;99253.81;5148599;28;20046;-76